sensor_id;sensor_type;location;lat;lon;timestamp;pressure;altitude;pressure_sealevel;temperature;humidity
70781;BME280;59514;48.810;2.134;2022-09-28T00:01:44;98734.84;;;11.45;97.28
70781;BME280;59514;48.810;2.134;2022-09-28T00:04:10;98725.97;;;11.44;97.15
70781;BME280;59514;48.810;2.134;2022-09-28T00:06:36;98732.97;;;11.45;97.37
70781;BME280;59514;48.810;2.134;2022-09-28T00:09:02;98731.09;;;11.41;97.81
70781;BME280;59514;48.810;2.134;2022-09-28T00:11:28;98721.69;;;11.28;98.34
70781;BME280;59514;48.810;2.134;2022-09-28T00:13:56;98723.31;;;11.29;97.77
70781;BME280;59514;48.810;2.134;2022-09-28T00:16:28;98719.84;;;11.13;96.98
70781;BME280;59514;48.810;2.134;2022-09-28T00:18:54;98727.34;;;11.06;96.38
70781;BME280;59514;48.810;2.134;2022-09-28T00:21:25;98724.38;;;11.03;96.88
70781;BME280;59514;48.810;2.134;2022-09-28T00:23:52;98727.34;;;11.01;96.69
70781;BME280;59514;48.810;2.134;2022-09-28T00:26:38;98720.88;;;11.02;97.55
70781;BME280;59514;48.810;2.134;2022-09-28T00:29:05;98721.69;;;11.08;98.04
70781;BME280;59514;48.810;2.134;2022-09-28T00:31:32;98722.75;;;11.12;97.63
70781;BME280;59514;48.810;2.134;2022-09-28T00:33:59;98716.34;;;11.03;98.24
70781;BME280;59514;48.810;2.134;2022-09-28T00:36:26;98723.06;;;11.05;98.48
70781;BME280;59514;48.810;2.134;2022-09-28T00:38:53;98718.19;;;11.02;98.82
70781;BME280;59514;48.810;2.134;2022-09-28T00:41:21;98712.03;;;11.02;99.28
70781;BME280;59514;48.810;2.134;2022-09-28T00:43:46;98714.47;;;11.03;100.00
70781;BME280;59514;48.810;2.134;2022-09-28T00:48:51;98697.53;;;11.13;99.69
70781;BME280;59514;48.810;2.134;2022-09-28T00:51:19;98709.63;;;11.20;100.00
70781;BME280;59514;48.810;2.134;2022-09-28T00:53:45;98704.53;;;11.19;100.00
70781;BME280;59514;48.810;2.134;2022-09-28T00:56:14;98704.50;;;11.14;100.00
70781;BME280;59514;48.810;2.134;2022-09-28T00:58:44;98704.75;;;11.17;100.00
70781;BME280;59514;48.810;2.134;2022-09-28T01:01:11;98699.69;;;11.21;100.00
70781;BME280;59514;48.810;2.134;2022-09-28T01:03:37;98692.94;;;11.23;100.00
70781;BME280;59514;48.810;2.134;2022-09-28T01:06:06;98697.25;;;11.29;100.00
70781;BME280;59514;48.810;2.134;2022-09-28T01:08:33;98699.66;;;11.26;100.00
70781;BME280;59514;48.810;2.134;2022-09-28T01:10:59;98698.88;;;11.31;100.00
70781;BME280;59514;48.810;2.134;2022-09-28T01:13:25;98708.00;;;11.35;100.00
70781;BME280;59514;48.810;2.134;2022-09-28T01:16:06;98709.06;;;11.28;100.00
70781;BME280;59514;48.810;2.134;2022-09-28T01:18:41;98705.31;;;11.24;100.00
70781;BME280;59514;48.810;2.134;2022-09-28T01:21:16;98708.50;;;11.32;100.00
70781;BME280;59514;48.810;2.134;2022-09-28T01:23:53;98699.38;;;11.27;100.00
70781;BME280;59514;48.810;2.134;2022-09-28T01:28:59;98693.50;;;11.31;100.00
70781;BME280;59514;48.810;2.134;2022-09-28T01:31:30;98684.63;;;11.35;100.00
70781;BME280;59514;48.810;2.134;2022-09-28T01:34:00;98692.94;;;11.23;100.00
70781;BME280;59514;48.810;2.134;2022-09-28T01:36:42;98695.66;;;11.18;100.00
70781;BME280;59514;48.810;2.134;2022-09-28T01:39:14;98701.53;;;11.25;100.00
70781;BME280;59514;48.810;2.134;2022-09-28T01:41:41;98696.72;;;11.22;100.00
70781;BME280;59514;48.810;2.134;2022-09-28T01:44:11;98693.78;;;11.19;100.00
70781;BME280;59514;48.810;2.134;2022-09-28T01:46:41;98690.78;;;11.25;100.00
70781;BME280;59514;48.810;2.134;2022-09-28T01:49:16;98686.50;;;11.19;100.00
70781;BME280;59514;48.810;2.134;2022-09-28T01:51:54;98682.75;;;11.20;100.00
70781;BME280;59514;48.810;2.134;2022-09-28T01:54:53;98679.78;;;11.22;100.00
70781;BME280;59514;48.810;2.134;2022-09-28T02:00:06;98684.63;;;11.20;100.00
70781;BME280;59514;48.810;2.134;2022-09-28T02:02:46;98681.69;;;11.11;100.00
70781;BME280;59514;48.810;2.134;2022-09-28T02:05:15;98674.44;;;11.17;100.00
70781;BME280;59514;48.810;2.134;2022-09-28T02:07:51;98675.22;;;11.12;100.00
70781;BME280;59514;48.810;2.134;2022-09-28T02:10:24;98672.81;;;11.21;100.00
70781;BME280;59514;48.810;2.134;2022-09-28T02:12:58;98677.41;;;11.15;100.00
70781;BME280;59514;48.810;2.134;2022-09-28T02:15:32;98676.56;;;11.10;100.00
70781;BME280;59514;48.810;2.134;2022-09-28T02:17:59;98670.94;;;11.16;100.00
70781;BME280;59514;48.810;2.134;2022-09-28T02:20:25;98664.22;;;11.09;100.00
70781;BME280;59514;48.810;2.134;2022-09-28T02:22:52;98667.72;;;11.04;100.00
70781;BME280;59514;48.810;2.134;2022-09-28T02:25:46;98665.31;;;11.03;100.00
70781;BME280;59514;48.810;2.134;2022-09-28T02:28:14;98656.44;;;11.07;100.00
70781;BME280;59514;48.810;2.134;2022-09-28T02:30:42;98661.28;;;11.00;100.00
70781;BME280;59514;48.810;2.134;2022-09-28T02:33:28;98663.41;;;10.98;100.00
70781;BME280;59514;48.810;2.134;2022-09-28T02:35:57;98658.31;;;11.07;100.00
70781;BME280;59514;48.810;2.134;2022-09-28T02:38:24;98673.09;;;11.04;100.00
70781;BME280;59514;48.810;2.134;2022-09-28T02:41:00;98659.66;;;11.04;100.00
70781;BME280;59514;48.810;2.134;2022-09-28T02:53:47;98641.94;;;11.08;100.00
70781;BME280;59514;48.810;2.134;2022-09-28T02:59:45;98645.72;;;11.07;100.00
70781;BME280;59514;48.810;2.134;2022-09-28T03:07:33;98653.75;;;11.07;100.00
70781;BME280;59514;48.810;2.134;2022-09-28T03:10:15;98657.78;;;11.05;100.00
70781;BME280;59514;48.810;2.134;2022-09-28T03:12:44;98654.84;;;11.01;100.00
70781;BME280;59514;48.810;2.134;2022-09-28T03:15:27;98659.38;;;11.06;100.00
70781;BME280;59514;48.810;2.134;2022-09-28T03:17:53;98653.22;;;11.05;100.00
70781;BME280;59514;48.810;2.134;2022-09-28T03:20:18;98643.81;;;11.13;100.00
70781;BME280;59514;48.810;2.134;2022-09-28T03:22:43;98655.34;;;11.08;100.00
70781;BME280;59514;48.810;2.134;2022-09-28T03:25:09;98659.13;;;11.02;100.00
70781;BME280;59514;48.810;2.134;2022-09-28T03:27:35;98668.53;;;11.05;100.00
70781;BME280;59514;48.810;2.134;2022-09-28T03:30:01;98667.72;;;11.04;100.00
70781;BME280;59514;48.810;2.134;2022-09-28T03:32:26;98669.06;;;10.92;100.00
70781;BME280;59514;48.810;2.134;2022-09-28T03:34:51;98669.88;;;11.02;100.00
70781;BME280;59514;48.810;2.134;2022-09-28T03:37:17;98668.50;;;11.00;100.00
70781;BME280;59514;48.810;2.134;2022-09-28T03:39:42;98677.13;;;11.07;100.00
70781;BME280;59514;48.810;2.134;2022-09-28T03:42:07;98672.28;;;11.09;100.00
70781;BME280;59514;48.810;2.134;2022-09-28T03:44:32;98665.31;;;11.03;100.00
70781;BME280;59514;48.810;2.134;2022-09-28T03:46:58;98668.25;;;11.06;100.00
70781;BME280;59514;48.810;2.134;2022-09-28T03:49:23;98666.66;;;11.00;100.00
70781;BME280;59514;48.810;2.134;2022-09-28T03:51:49;98660.75;;;10.93;100.00
70781;BME280;59514;48.810;2.134;2022-09-28T03:54:14;98667.19;;;10.97;100.00
70781;BME280;59514;48.810;2.134;2022-09-28T03:56:40;98663.41;;;10.98;100.00
70781;BME280;59514;48.810;2.134;2022-09-28T03:59:05;98664.50;;;11.02;100.00
70781;BME280;59514;48.810;2.134;2022-09-28T04:01:30;98669.31;;;11.00;100.00
70781;BME280;59514;48.810;2.134;2022-09-28T04:03:56;98677.94;;;10.97;100.00
70781;BME280;59514;48.810;2.134;2022-09-28T04:06:22;98683.31;;;10.97;100.00
70781;BME280;59514;48.810;2.134;2022-09-28T04:08:48;98680.09;;;10.95;100.00
70781;BME280;59514;48.810;2.134;2022-09-28T04:11:13;98682.22;;;10.93;100.00
70781;BME280;59514;48.810;2.134;2022-09-28T04:13:38;98685.47;;;10.95;100.00
70781;BME280;59514;48.810;2.134;2022-09-28T04:16:04;98689.75;;;11.01;100.00
70781;BME280;59514;48.810;2.134;2022-09-28T04:18:30;98685.47;;;10.95;100.00
70781;BME280;59514;48.810;2.134;2022-09-28T04:21:04;98685.44;;;10.90;100.00
70781;BME280;59514;48.810;2.134;2022-09-28T04:23:31;98685.72;;;10.89;100.00
70781;BME280;59514;48.810;2.134;2022-09-28T04:25:57;98680.06;;;10.85;100.00
70781;BME280;59514;48.810;2.134;2022-09-28T04:28:22;98698.03;;;10.90;100.00
70781;BME280;59514;48.810;2.134;2022-09-28T04:31:13;98691.59;;;10.96;100.00
70781;BME280;59514;48.810;2.134;2022-09-28T04:33:40;98692.41;;;10.96;100.00
70781;BME280;59514;48.810;2.134;2022-09-28T04:36:05;98695.13;;;10.91;100.00
70781;BME280;59514;48.810;2.134;2022-09-28T04:38:32;98708.00;;;10.89;100.00
70781;BME280;59514;48.810;2.134;2022-09-28T04:40:57;98702.91;;;10.93;100.00
70781;BME280;59514;48.810;2.134;2022-09-28T04:43:22;98703.44;;;10.85;100.00
70781;BME280;59514;48.810;2.134;2022-09-28T04:45:47;98698.34;;;10.93;100.00
70781;BME280;59514;48.810;2.134;2022-09-28T04:48:13;98696.19;;;10.95;100.00
70781;BME280;59514;48.810;2.134;2022-09-28T04:50:38;98708.53;;;10.91;100.00
70781;BME280;59514;48.810;2.134;2022-09-28T04:53:03;98699.69;;;10.91;100.00
70781;BME280;59514;48.810;2.134;2022-09-28T04:55:29;98696.44;;;10.89;100.00
70781;BME280;59514;48.810;2.134;2022-09-28T04:57:57;98705.56;;;10.88;100.00
70781;BME280;59514;48.810;2.134;2022-09-28T05:00:27;98704.78;;;10.87;100.00
70781;BME280;59514;48.810;2.134;2022-09-28T05:02:53;98702.09;;;10.92;100.00
70781;BME280;59514;48.810;2.134;2022-09-28T05:05:18;98698.34;;;10.93;100.00
70781;BME280;59514;48.810;2.134;2022-09-28T05:07:44;98699.69;;;11.01;100.00
70781;BME280;59514;48.810;2.134;2022-09-28T05:10:10;98696.72;;;10.97;100.00
70781;BME280;59514;48.810;2.134;2022-09-28T05:12:35;98698.88;;;11.00;100.00
70781;BME280;59514;48.810;2.134;2022-09-28T05:15:00;98698.59;;;10.97;100.00
70781;BME280;59514;48.810;2.134;2022-09-28T05:17:26;98702.63;;;10.89;100.00
70781;BME280;59514;48.810;2.134;2022-09-28T05:19:51;98703.16;;;10.96;100.00
70781;BME280;59514;48.810;2.134;2022-09-28T05:22:16;98699.41;;;10.97;100.00
70781;BME280;59514;48.810;2.134;2022-09-28T05:24:42;98698.34;;;10.93;100.00
70781;BME280;59514;48.810;2.134;2022-09-28T05:27:07;98705.03;;;10.91;100.00
70781;BME280;59514;48.810;2.134;2022-09-28T05:29:33;98693.75;;;10.84;100.00
70781;BME280;59514;48.810;2.134;2022-09-28T05:32:00;98696.19;;;10.90;100.00
70781;BME280;59514;48.810;2.134;2022-09-28T05:34:26;98704.22;;;10.90;100.00
70781;BME280;59514;48.810;2.134;2022-09-28T05:36:51;98699.94;;;10.84;100.00
70781;BME280;59514;48.810;2.134;2022-09-28T05:39:16;98710.16;;;10.87;100.00
70781;BME280;59514;48.810;2.134;2022-09-28T05:41:42;98701.56;;;10.95;100.00
70781;BME280;59514;48.810;2.134;2022-09-28T05:44:07;98705.84;;;10.91;100.00
70781;BME280;59514;48.810;2.134;2022-09-28T05:46:32;98706.94;;;10.85;100.00
70781;BME280;59514;48.810;2.134;2022-09-28T05:49:00;98706.09;;;10.90;100.00
70781;BME280;59514;48.810;2.134;2022-09-28T05:51:26;98706.13;;;10.95;100.00
70781;BME280;59514;48.810;2.134;2022-09-28T05:53:54;98705.84;;;10.91;100.00
70781;BME280;59514;48.810;2.134;2022-09-28T05:56:20;98709.09;;;10.93;100.00
70781;BME280;59514;48.810;2.134;2022-09-28T05:58:45;98701.28;;;10.92;100.00
70781;BME280;59514;48.810;2.134;2022-09-28T06:01:10;98708.78;;;10.90;100.00
70781;BME280;59514;48.810;2.134;2022-09-28T06:03:36;98719.28;;;10.96;100.00
70781;BME280;59514;48.810;2.134;2022-09-28T06:06:01;98716.59;;;10.91;100.00
70781;BME280;59514;48.810;2.134;2022-09-28T06:08:27;98717.38;;;10.92;100.00
70781;BME280;59514;48.810;2.134;2022-09-28T06:10:52;98721.97;;;10.91;100.00
70781;BME280;59514;48.810;2.134;2022-09-28T06:13:17;98714.44;;;10.98;100.00
70781;BME280;59514;48.810;2.134;2022-09-28T06:15:43;98715.00;;;11.05;100.00
70781;BME280;59514;48.810;2.134;2022-09-28T06:18:12;98722.78;;;10.97;100.00
70781;BME280;59514;48.810;2.134;2022-09-28T06:20:39;98715.50;;;10.92;100.00
70781;BME280;59514;48.810;2.134;2022-09-28T06:23:08;98731.63;;;11.02;100.00
70781;BME280;59514;48.810;2.134;2022-09-28T06:25:34;98728.94;;;10.92;100.00
70781;BME280;59514;48.810;2.134;2022-09-28T06:28:05;98728.94;;;10.92;100.00
70781;BME280;59514;48.810;2.134;2022-09-28T06:30:33;98731.63;;;10.92;100.00
70781;BME280;59514;48.810;2.134;2022-09-28T06:33:00;98739.16;;;11.00;100.00
70781;BME280;59514;48.810;2.134;2022-09-28T06:35:28;98745.84;;;10.93;100.00
70781;BME280;59514;48.810;2.134;2022-09-28T06:37:55;98741.03;;;11.00;100.00
70781;BME280;59514;48.810;2.134;2022-09-28T06:40:21;98746.66;;;10.93;100.00
70781;BME280;59514;48.810;2.134;2022-09-28T06:43:03;98750.69;;;10.96;100.00
70781;BME280;59514;48.810;2.134;2022-09-28T06:45:34;98754.97;;;11.02;100.00
70781;BME280;59514;48.810;2.134;2022-09-28T06:48:00;98759.03;;;11.09;100.00
70781;BME280;59514;48.810;2.134;2022-09-28T06:50:31;98753.66;;;11.04;100.00
70781;BME280;59514;48.810;2.134;2022-09-28T06:52:57;98756.63;;;11.03;100.00
70781;BME280;59514;48.810;2.134;2022-09-28T06:55:23;98765.47;;;11.03;100.00
70781;BME280;59514;48.810;2.134;2022-09-28T06:58:02;98767.88;;;11.00;100.00
70781;BME280;59514;48.810;2.134;2022-09-28T07:00:31;98775.13;;;10.94;100.00
70781;BME280;59514;48.810;2.134;2022-09-28T07:03:00;98778.59;;;10.90;100.00
70781;BME280;59514;48.810;2.134;2022-09-28T07:05:26;98782.91;;;10.96;100.00
70781;BME280;59514;48.810;2.134;2022-09-28T07:07:56;98779.97;;;10.97;100.00
70781;BME280;59514;48.810;2.134;2022-09-28T07:10:23;98779.16;;;10.97;100.00
70781;BME280;59514;48.810;2.134;2022-09-28T07:12:50;98783.19;;;11.04;100.00
70781;BME280;59514;48.810;2.134;2022-09-28T07:15:15;98784.28;;;11.08;100.00
70781;BME280;59514;48.810;2.134;2022-09-28T07:17:41;98791.25;;;10.99;100.00
70781;BME280;59514;48.810;2.134;2022-09-28T07:20:06;98787.47;;;11.00;100.00
70781;BME280;59514;48.810;2.134;2022-09-28T07:22:34;98785.88;;;11.04;100.00
70781;BME280;59514;48.810;2.134;2022-09-28T07:25:00;98783.97;;;11.00;100.00
70781;BME280;59514;48.810;2.134;2022-09-28T07:27:25;98783.72;;;11.06;100.00
70781;BME280;59514;48.810;2.134;2022-09-28T07:29:51;98786.69;;;11.10;99.98
70781;BME280;59514;48.810;2.134;2022-09-28T07:32:19;98790.72;;;11.17;99.52
70781;BME280;59514;48.810;2.134;2022-09-28T07:34:44;98785.88;;;11.19;99.28
70781;BME280;59514;48.810;2.134;2022-09-28T07:37:10;98788.59;;;11.09;98.52
70781;BME280;59514;48.810;2.134;2022-09-28T07:39:38;98785.63;;;11.21;98.65
70781;BME280;59514;48.810;2.134;2022-09-28T07:42:22;98800.41;;;11.23;98.23
70781;BME280;59514;48.810;2.134;2022-09-28T07:44:48;98807.13;;;11.21;97.69
70781;BME280;59514;48.810;2.134;2022-09-28T07:47:13;98804.69;;;11.14;97.87
70781;BME280;59514;48.810;2.134;2022-09-28T07:49:38;98807.38;;;11.19;97.96
70781;BME280;59514;48.810;2.134;2022-09-28T07:52:04;98811.16;;;11.18;96.77
70781;BME280;59514;48.810;2.134;2022-09-28T07:54:30;98811.72;;;11.31;97.31
70781;BME280;59514;48.810;2.134;2022-09-28T07:56:55;98810.63;;;11.26;95.88
70781;BME280;59514;48.810;2.134;2022-09-28T07:59:21;98814.38;;;11.31;95.44
70781;BME280;59514;48.810;2.134;2022-09-28T08:01:46;98812.78;;;11.35;96.12
70781;BME280;59514;48.810;2.134;2022-09-28T08:04:14;98821.91;;;11.44;96.22
70781;BME280;59514;48.810;2.134;2022-09-28T08:06:39;98819.75;;;11.46;95.94
70781;BME280;59514;48.810;2.134;2022-09-28T08:09:05;98820.84;;;11.45;95.96
70781;BME280;59514;48.810;2.134;2022-09-28T08:11:30;98819.75;;;11.46;95.55
70781;BME280;59514;48.810;2.134;2022-09-28T08:13:55;98826.50;;;11.53;95.81
70781;BME280;59514;48.810;2.134;2022-09-28T08:16:22;98824.63;;;11.49;96.71
70781;BME280;59514;48.810;2.134;2022-09-28T08:18:48;98824.88;;;11.52;96.17
70781;BME280;59514;48.810;2.134;2022-09-28T08:21:13;98830.25;;;11.47;95.09
70781;BME280;59514;48.810;2.134;2022-09-28T08:23:57;98827.59;;;11.47;95.90
70781;BME280;59514;48.810;2.134;2022-09-28T08:26:23;98824.06;;;11.52;96.40
70781;BME280;59514;48.810;2.134;2022-09-28T08:28:48;98840.75;;;11.49;95.58
70781;BME280;59514;48.810;2.134;2022-09-28T08:31:14;98833.47;;;11.59;94.65
70781;BME280;59514;48.810;2.134;2022-09-28T08:33:39;98833.22;;;11.61;94.21
70781;BME280;59514;48.810;2.134;2022-09-28T08:36:08;98828.38;;;11.58;93.24
70781;BME280;59514;48.810;2.134;2022-09-28T08:38:34;98835.38;;;11.59;91.58
70781;BME280;59514;48.810;2.134;2022-09-28T08:46:16;98830.53;;;11.76;89.80
70781;BME280;59514;48.810;2.134;2022-09-28T08:48:57;98829.47;;;11.82;90.32
70781;BME280;59514;48.810;2.134;2022-09-28T08:51:28;98837.00;;;11.90;87.99
70781;BME280;59514;48.810;2.134;2022-09-28T08:54:01;98835.41;;;11.89;84.65
70781;BME280;59514;48.810;2.134;2022-09-28T08:56:46;98827.03;;;11.95;83.84
70781;BME280;59514;48.810;2.134;2022-09-28T08:59:18;98841.28;;;12.06;83.95
70781;BME280;59514;48.810;2.134;2022-09-28T09:01:48;98836.97;;;12.10;83.37
70781;BME280;59514;48.810;2.134;2022-09-28T09:04:14;98838.56;;;12.11;81.60
70781;BME280;59514;48.810;2.134;2022-09-28T09:06:53;98843.41;;;12.24;81.70
70781;BME280;59514;48.810;2.134;2022-09-28T09:12:22;98845.22;;;12.44;80.43
70781;BME280;59514;48.810;2.134;2022-09-28T09:15:33;98845.78;;;12.36;79.78
70781;BME280;59514;48.810;2.134;2022-09-28T09:20:49;98840.16;;;12.32;77.05
70781;BME280;59514;48.810;2.134;2022-09-28T09:23:17;98839.59;;;12.35;76.11
70781;BME280;59514;48.810;2.134;2022-09-28T09:25:59;98827.72;;;12.46;77.13
70781;BME280;59514;48.810;2.134;2022-09-28T09:41:57;98851.44;;;12.29;74.34
70781;BME280;59514;48.810;2.134;2022-09-28T09:44:36;98854.09;;;12.44;74.01
70781;BME280;59514;48.810;2.134;2022-09-28T09:47:08;98860.53;;;12.58;74.78
70781;BME280;59514;48.810;2.134;2022-09-28T09:49:38;98847.88;;;12.54;74.45
70781;BME280;59514;48.810;2.134;2022-09-28T09:52:17;98844.38;;;12.53;73.00
70781;BME280;59514;48.810;2.134;2022-09-28T09:54:58;98850.88;;;12.42;72.46
70781;BME280;59514;48.810;2.134;2022-09-28T09:57:31;98849.50;;;12.45;70.36
70781;BME280;59514;48.810;2.134;2022-09-28T10:00:00;98838.25;;;12.43;71.82
70781;BME280;59514;48.810;2.134;2022-09-28T10:02:29;98846.53;;;12.51;69.44
70781;BME280;59514;48.810;2.134;2022-09-28T10:05:17;98849.19;;;12.61;70.70
70781;BME280;59514;48.810;2.134;2022-09-28T10:07:54;98848.91;;;12.68;70.22
70781;BME280;59514;48.810;2.134;2022-09-28T10:10:29;98842.66;;;12.77;69.92
70781;BME280;59514;48.810;2.134;2022-09-28T10:12:55;98841.03;;;12.81;70.51
70781;BME280;59514;48.810;2.134;2022-09-28T10:15:28;98839.97;;;12.82;70.96
70781;BME280;59514;48.810;2.134;2022-09-28T10:17:56;98843.69;;;12.91;68.99
70781;BME280;59514;48.810;2.134;2022-09-28T10:20:23;98834.44;;;13.02;68.41
70781;BME280;59514;48.810;2.134;2022-09-28T10:22:55;98849.59;;;12.93;65.02
70781;BME280;59514;48.810;2.134;2022-09-28T10:25:20;98844.72;;;13.06;65.78
70781;BME280;59514;48.810;2.134;2022-09-28T10:27:47;98847.38;;;13.11;66.27
70781;BME280;59514;48.810;2.134;2022-09-28T10:30:19;98845.25;;;12.97;67.75
70781;BME280;59514;48.810;2.134;2022-09-28T10:32:49;98832.31;;;13.05;67.25
70781;BME280;59514;48.810;2.134;2022-09-28T10:35:39;98839.03;;;13.07;67.57
70781;BME280;59514;48.810;2.134;2022-09-28T10:38:05;98835.00;;;13.10;67.93
70781;BME280;59514;48.810;2.134;2022-09-28T10:40:47;98843.09;;;13.05;68.23
70781;BME280;59514;48.810;2.134;2022-09-28T10:46:08;98839.63;;;13.04;68.73
70781;BME280;59514;48.810;2.134;2022-09-28T10:51:12;98825.09;;;12.90;67.58
70781;BME280;59514;48.810;2.134;2022-09-28T10:53:38;98829.63;;;12.99;66.97
70781;BME280;59514;48.810;2.134;2022-09-28T10:56:05;98821.88;;;12.88;68.42
70781;BME280;59514;48.810;2.134;2022-09-28T10:58:38;98825.28;;;13.14;67.60
70781;BME280;59514;48.810;2.134;2022-09-28T11:01:11;98827.91;;;13.19;66.13
70781;BME280;59514;48.810;2.134;2022-09-28T11:04:04;98832.38;;;13.38;65.15
70781;BME280;59514;48.810;2.134;2022-09-28T11:06:37;98831.06;;;13.36;65.71
70781;BME280;59514;48.810;2.134;2022-09-28T11:09:06;98825.06;;;13.44;66.02
70781;BME280;59514;48.810;2.134;2022-09-28T11:11:41;98838.03;;;13.42;64.22
70781;BME280;59514;48.810;2.134;2022-09-28T11:14:37;98834.38;;;13.61;64.26
70781;BME280;59514;48.810;2.134;2022-09-28T11:19:46;98828.38;;;13.64;64.39
70781;BME280;59514;48.810;2.134;2022-09-28T11:22:19;98836.75;;;13.68;64.56
70781;BME280;59514;48.810;2.134;2022-09-28T11:24:46;98836.81;;;13.58;62.70
70781;BME280;59514;48.810;2.134;2022-09-28T11:27:23;98831.63;;;13.66;62.97
70781;BME280;59514;48.810;2.134;2022-09-28T11:29:56;98837.22;;;13.75;62.07
70781;BME280;59514;48.810;2.134;2022-09-28T11:32:25;98831.81;;;13.75;62.02
70781;BME280;59514;48.810;2.134;2022-09-28T11:34:55;98831.97;;;13.55;62.91
70781;BME280;59514;48.810;2.134;2022-09-28T11:48:01;98833.22;;;13.34;64.82
70781;BME280;59514;48.810;2.134;2022-09-28T11:50:50;98838.03;;;13.42;64.84
70781;BME280;59514;48.810;2.134;2022-09-28T11:53:20;98840.44;;;13.38;64.82
70781;BME280;59514;48.810;2.134;2022-09-28T11:56:02;98834.09;;;13.24;63.54
70781;BME280;59514;48.810;2.134;2022-09-28T11:58:34;98832.69;;;13.32;64.27
70781;BME280;59514;48.810;2.134;2022-09-28T12:01:07;98829.66;;;13.38;64.62
70781;BME280;59514;48.810;2.134;2022-09-28T12:03:47;98832.13;;;13.35;64.10
70781;BME280;59514;48.810;2.134;2022-09-28T12:06:18;98838.09;;;13.32;64.35
70781;BME280;59514;48.810;2.134;2022-09-28T12:08:51;98825.16;;;13.29;64.89
70781;BME280;59514;48.810;2.134;2022-09-28T12:11:32;98824.69;;;13.17;65.59
70781;BME280;59514;48.810;2.134;2022-09-28T12:14:01;98819.00;;;13.23;66.02
70781;BME280;59514;48.810;2.134;2022-09-28T12:16:53;98818.72;;;13.25;65.77
70781;BME280;59514;48.810;2.134;2022-09-28T12:19:27;98818.19;;;13.23;65.92
70781;BME280;59514;48.810;2.134;2022-09-28T12:21:59;98818.41;;;13.31;66.52
70781;BME280;59514;48.810;2.134;2022-09-28T12:24:39;98803.34;;;13.30;67.19
70781;BME280;59514;48.810;2.134;2022-09-28T12:27:16;98806.72;;;13.46;65.45
70781;BME280;59514;48.810;2.134;2022-09-28T12:34:44;98803.84;;;15.08;62.87
70781;BME280;59514;48.810;2.134;2022-09-28T12:37:29;98805.75;;;14.46;61.97
70781;BME280;59514;48.810;2.134;2022-09-28T12:42:58;98807.28;;;14.00;63.51
70781;BME280;59514;48.810;2.134;2022-09-28T12:45:59;98800.56;;;14.50;61.50
70781;BME280;59514;48.810;2.134;2022-09-28T12:57:35;98803.03;;;13.94;63.22
70781;BME280;59514;48.810;2.134;2022-09-28T13:10:54;98790.38;;;14.18;64.24
70781;BME280;59514;48.810;2.134;2022-09-28T13:18:54;98784.31;;;15.29;56.81
70781;BME280;59514;48.810;2.134;2022-09-28T13:24:32;98778.03;;;14.59;57.56
70781;BME280;59514;48.810;2.134;2022-09-28T13:27:08;98774.19;;;14.84;57.89
70781;BME280;59514;48.810;2.134;2022-09-28T13:29:36;98775.06;;;15.54;56.63
70781;BME280;59514;48.810;2.134;2022-09-28T13:32:03;98770.66;;;15.58;55.41
70781;BME280;59514;48.810;2.134;2022-09-28T13:34:33;98767.50;;;15.83;55.25
70781;BME280;59514;48.810;2.134;2022-09-28T13:37:19;98764.59;;;15.47;55.63
70781;BME280;59514;48.810;2.134;2022-09-28T13:39:56;98770.38;;;15.73;55.56
70781;BME280;59514;48.810;2.134;2022-09-28T13:45:14;98760.31;;;14.91;58.15
70781;BME280;59514;48.810;2.134;2022-09-28T13:53:16;98776.13;;;14.41;59.26
70781;BME280;59514;48.810;2.134;2022-09-28T14:00:48;98798.81;;;13.21;68.46
70781;BME280;59514;48.810;2.134;2022-09-28T14:16:26;98827.97;;;12.50;77.32
70781;BME280;59514;48.810;2.134;2022-09-28T14:29:42;98827.31;;;11.94;84.45
70781;BME280;59514;48.810;2.134;2022-09-28T14:34:45;98819.78;;;11.86;83.64
70781;BME280;59514;48.810;2.134;2022-09-28T14:40:20;98814.97;;;11.83;83.43
70781;BME280;59514;48.810;2.134;2022-09-28T14:56:44;98811.97;;;11.99;84.75
70781;BME280;59514;48.810;2.134;2022-09-28T14:59:23;98812.25;;;11.98;84.57
70781;BME280;59514;48.810;2.134;2022-09-28T15:01:54;98809.59;;;11.83;84.95
70781;BME280;59514;48.810;2.134;2022-09-28T15:04:22;98809.03;;;11.76;84.85
70781;BME280;59514;48.810;2.134;2022-09-28T15:06:50;98803.91;;;11.79;85.44
70781;BME280;59514;48.810;2.134;2022-09-28T15:11:50;98797.75;;;11.89;83.39
70781;BME280;59514;48.810;2.134;2022-09-28T15:14:19;98805.78;;;11.94;81.25
70781;BME280;59514;48.810;2.134;2022-09-28T15:16:45;98795.31;;;11.82;81.08
70781;BME280;59514;48.810;2.134;2022-09-28T15:19:24;98795.59;;;11.81;80.98
70781;BME280;59514;48.810;2.134;2022-09-28T15:21:50;98796.69;;;11.75;81.34
70781;BME280;59514;48.810;2.134;2022-09-28T15:24:44;98794.00;;;11.70;81.00
70781;BME280;59514;48.810;2.134;2022-09-28T15:27:14;98794.78;;;11.80;80.81
70781;BME280;59514;48.810;2.134;2022-09-28T15:29:40;98791.56;;;11.78;80.50
70781;BME280;59514;48.810;2.134;2022-09-28T15:32:22;98796.66;;;11.90;81.33
70781;BME280;59514;48.810;2.134;2022-09-28T15:34:47;98794.22;;;11.98;80.75
70781;BME280;59514;48.810;2.134;2022-09-28T15:37:28;98790.06;;;12.31;79.45
70781;BME280;59514;48.810;2.134;2022-09-28T15:39:57;98786.16;;;12.72;77.73
70781;BME280;59514;48.810;2.134;2022-09-28T15:42:24;98789.59;;;13.27;76.10
70781;BME280;59514;48.810;2.134;2022-09-28T15:45:22;98788.72;;;13.36;75.48
70781;BME280;59514;48.810;2.134;2022-09-28T15:47:53;98784.72;;;13.34;74.20
70781;BME280;59514;48.810;2.134;2022-09-28T15:50:27;98777.41;;;13.68;72.62
70781;BME280;59514;48.810;2.134;2022-09-28T15:53:00;98791.06;;;13.09;74.22
70781;BME280;59514;48.810;2.134;2022-09-28T15:55:48;98789.66;;;13.22;74.13
70781;BME280;59514;48.810;2.134;2022-09-28T15:58:21;98790.56;;;13.02;74.54